createdAt,value
2023-10-19T01:19:23.317Z,60.63
2023-10-19T01:22:25.780Z,63.27
2023-10-19T01:52:37.895Z,64.02
2023-10-19T01:58:56.100Z,61.36
2023-10-19T02:05:12.745Z,59.13
2023-10-19T02:17:52.206Z,63.77
2023-10-19T02:26:57.132Z,59.96
2023-10-19T02:30:15.878Z,58.87
2023-10-19T02:33:14.185Z,60.61
2023-10-19T02:42:42.748Z,62.99
2023-10-19T02:45:55.053Z,61.55
2023-10-19T02:49:01.157Z,60.33
2023-10-19T02:52:00.013Z,59.23
2023-10-19T02:55:16.992Z,58.84
2023-10-19T02:57:52.819Z,60.22
2023-10-19T03:00:40.531Z,61.85
2023-10-19T03:03:15.539Z,63.86
2023-10-19T03:05:58.420Z,63.69
2023-10-19T03:08:28.110Z,62.47
2023-10-19T03:11:08.144Z,61.25
2023-10-19T03:13:35.954Z,60.20
2023-10-19T03:16:08.479Z,59.18
2023-10-19T03:18:36.515Z,58.85
2023-10-19T03:21:04.983Z,60.19
2023-10-19T03:23:35.325Z,61.86
2023-10-19T03:26:23.455Z,63.87
2023-10-19T03:29:04.067Z,63.68
2023-10-19T03:31:33.712Z,62.44
2023-10-19T03:34:05.731Z,61.14
2023-10-19T03:36:33.363Z,60.10
2023-10-19T03:39:12.042Z,59.00
2023-10-19T03:41:42.778Z,59.04
2023-10-19T03:44:38.300Z,60.38
2023-10-19T03:47:12.260Z,61.93
2023-10-19T03:49:42.732Z,64.00
2023-10-19T03:52:30.593Z,63.56
2023-10-19T03:54:59.785Z,62.00
2023-10-19T03:57:30.986Z,60.80
2023-10-19T03:59:59.975Z,59.66
2023-10-19T04:02:37.801Z,58.86
2023-10-19T04:05:07.609Z,59.70
2023-10-19T04:07:35.329Z,61.46
2023-10-19T04:10:29.565Z,63.32
2023-10-19T04:13:01.258Z,63.53
2023-10-19T04:15:30.145Z,62.22
2023-10-19T04:17:59.452Z,60.95
2023-10-19T04:20:36.780Z,60.07
2023-10-19T04:23:11.464Z,59.09
2023-10-19T04:25:39.563Z,58.90
2023-10-19T04:28:09.855Z,60.49
2023-10-19T04:30:38.485Z,62.24
2023-10-19T04:33:10.272Z,63.82
2023-10-19T04:35:41.933Z,62.97
2023-10-19T04:38:10.716Z,61.65
2023-10-19T04:40:38.795Z,60.53
2023-10-19T04:43:07.156Z,59.08
2023-10-19T04:45:35.654Z,58.91
2023-10-19T04:48:05.088Z,60.33
2023-10-19T04:50:33.983Z,62.25
2023-10-19T04:53:01.830Z,63.66
2023-10-19T04:55:32.231Z,62.71
2023-10-19T04:57:59.965Z,61.43
2023-10-19T05:00:28.748Z,60.11
2023-10-19T05:02:56.696Z,59.00
2023-10-19T05:05:25.221Z,58.97
2023-10-19T05:07:53.408Z,60.56
2023-10-19T05:10:21.549Z,61.96
2023-10-19T05:12:50.575Z,63.96
2023-10-19T05:15:19.225Z,63.34
2023-10-19T05:17:47.185Z,62.01
2023-10-19T05:20:15.626Z,60.76
2023-10-19T05:22:44.687Z,59.46
2023-10-19T05:25:12.960Z,58.76
2023-10-19T05:27:43.106Z,60.08
2023-10-19T05:30:11.487Z,61.54
2023-10-19T05:32:39.725Z,63.45
2023-10-19T05:35:08.807Z,63.23
2023-10-19T05:37:37.161Z,61.75
2023-10-19T05:40:06.282Z,60.30
2023-10-19T05:42:35.415Z,59.12
2023-10-19T05:45:04.313Z,58.76
2023-10-19T05:47:32.648Z,60.20
2023-10-19T05:50:01.101Z,61.89
2023-10-19T05:52:30.110Z,62.80
2023-10-19T05:54:58.238Z,64.36
2023-10-19T05:57:26.857Z,63.29
2023-10-19T05:59:55.693Z,61.82
2023-10-19T06:02:33.178Z,60.42
2023-10-19T06:05:02.580Z,58.88
2023-10-19T06:07:29.901Z,58.38
2023-10-19T06:09:57.740Z,59.77
2023-10-19T06:12:25.785Z,61.63
2023-10-19T06:14:53.002Z,63.17
2023-10-19T06:17:21.507Z,62.86
2023-10-19T06:19:50.299Z,61.01
2023-10-19T06:22:19.179Z,59.66
2023-10-19T06:24:47.137Z,58.64
2023-10-19T06:27:15.491Z,59.30
2023-10-19T06:29:44.876Z,60.31
2023-10-19T06:32:13.817Z,61.52
2023-10-19T06:34:41.933Z,62.95
2023-10-19T06:37:11.022Z,63.51
2023-10-19T06:39:42.580Z,62.27
2023-10-19T06:42:14.634Z,60.68
2023-10-19T06:44:45.093Z,59.29
2023-10-19T06:47:14.167Z,58.42
2023-10-19T06:49:42.643Z,59.71
2023-10-19T06:52:12.436Z,61.11
2023-10-19T06:54:39.756Z,62.49
2023-10-19T06:57:08.792Z,63.36
2023-10-19T06:59:37.327Z,61.95
2023-10-19T07:02:09.051Z,60.28
2023-10-19T07:04:37.559Z,58.85
2023-10-19T07:07:13.716Z,58.61
2023-10-19T07:09:44.012Z,60.24
2023-10-19T07:12:13.017Z,61.93
2023-10-19T07:14:41.852Z,63.00
2023-10-19T07:17:10.028Z,61.95
2023-10-19T07:19:38.933Z,60.31
2023-10-19T07:22:10.765Z,58.89
2023-10-19T07:24:39.089Z,58.43
2023-10-19T07:27:09.021Z,59.56
2023-10-19T07:29:43.868Z,60.99
2023-10-19T07:32:16.123Z,62.23
2023-10-19T07:34:45.322Z,62.98
2023-10-19T07:37:16.075Z,61.58
2023-10-19T07:39:49.407Z,59.67
2023-10-19T07:42:18.116Z,57.99
2023-10-19T07:44:45.744Z,58.97
2023-10-19T07:47:12.886Z,60.37
2023-10-19T07:49:40.189Z,61.45
2023-10-19T07:52:08.913Z,62.64
2023-10-19T07:54:37.551Z,61.77
2023-10-19T07:57:08.767Z,59.70
2023-10-19T07:59:38.628Z,58.39
2023-10-19T08:02:09.114Z,59.31
2023-10-19T08:04:37.138Z,60.92
2023-10-19T08:07:05.322Z,62.06
2023-10-19T08:09:37.664Z,63.15
2023-10-19T08:12:07.177Z,61.71
2023-10-19T08:14:35.486Z,59.81
2023-10-19T08:17:04.415Z,58.42
2023-10-19T08:19:32.480Z,59.64
2023-10-19T08:22:00.085Z,61.03
2023-10-19T08:24:30.025Z,62.40
2023-10-19T08:26:57.496Z,62.32
2023-10-19T08:29:25.785Z,60.74
2023-10-19T08:31:53.637Z,59.23
2023-10-19T08:34:22.665Z,58.41
2023-10-19T08:36:50.778Z,59.84
2023-10-19T08:39:18.924Z,61.23
2023-10-19T08:41:50.151Z,62.44
2023-10-19T08:44:22.399Z,61.99
2023-10-19T08:46:52.861Z,59.90
2023-10-19T08:49:20.747Z,58.60
2023-10-19T08:51:49.787Z,59.34
2023-10-19T08:54:19.566Z,60.55
2023-10-19T08:56:50.500Z,61.70
2023-10-19T08:59:17.963Z,62.69
2023-10-19T09:01:45.487Z,62.34
2023-10-19T09:04:14.889Z,60.54
2023-10-19T09:06:43.449Z,57.96
2023-10-19T09:09:20.474Z,57.92
2023-10-19T09:11:51.539Z,59.40
2023-10-19T09:14:34.947Z,60.70
2023-10-19T09:17:10.829Z,61.81
2023-10-19T09:19:46.409Z,62.60
2023-10-19T09:22:27.075Z,62.12
2023-10-19T09:24:57.336Z,59.81
2023-10-19T09:27:27.639Z,57.96
2023-10-19T09:30:09.005Z,58.61
2023-10-19T09:32:44.292Z,59.87
2023-10-19T09:35:18.270Z,60.76
2023-10-19T09:37:49.876Z,61.69
2023-10-19T09:40:18.697Z,61.81
2023-10-19T09:42:54.835Z,62.61
2023-10-19T09:45:30.605Z,62.37
2023-10-19T09:48:06.779Z,59.69
2023-10-19T09:50:35.595Z,58.47
2023-10-19T09:53:06.918Z,59.29
2023-10-19T09:55:46.786Z,59.87
2023-10-19T09:58:30.446Z,61.00
2023-10-19T10:01:30.478Z,61.36
2023-10-19T10:04:11.026Z,62.31
2023-10-19T10:06:55.807Z,60.83
2023-10-19T10:09:37.654Z,59.00
2023-10-19T10:15:17.184Z,58.92
2023-10-19T10:17:56.480Z,59.58
2023-10-19T10:20:36.991Z,60.95
2023-10-19T10:23:39.687Z,61.55
2023-10-19T10:26:18.851Z,62.65
2023-10-19T10:28:54.741Z,60.99
2023-10-19T10:31:26.048Z,58.36
2023-10-19T10:34:01.199Z,58.34
2023-10-19T10:37:09.394Z,59.06
2023-10-19T10:39:46.144Z,60.06
2023-10-19T10:42:20.541Z,61.33
2023-10-19T10:45:16.020Z,61.89
2023-10-19T10:48:22.117Z,62.15
2023-10-19T11:01:40.332Z,59.38
2023-10-19T11:45:45.223Z,60.95
2023-10-19T11:48:31.522Z,61.18
2023-10-19T11:51:14.616Z,62.21
2023-10-19T11:53:54.724Z,63.56
2023-10-19T11:56:52.215Z,61.82
2023-10-19T11:59:25.081Z,60.09
2023-10-19T12:01:55.986Z,58.11
2023-10-19T12:04:35.269Z,58.35
2023-10-19T12:07:07.337Z,59.72
2023-10-19T12:09:56.702Z,60.84
2023-10-19T12:12:54.185Z,62.36
2023-10-19T12:18:19.999Z,59.71
2023-10-19T12:21:01.781Z,58.18
2023-10-19T12:23:34.201Z,59.13
2023-10-19T12:29:01.638Z,60.95
2023-10-19T12:31:39.458Z,61.75
2023-10-19T12:37:34.232Z,60.77
2023-10-19T12:40:32.533Z,57.96
2023-10-19T12:43:37.028Z,58.09
2023-10-19T12:46:23.400Z,59.01
2023-10-19T12:49:03.026Z,59.95
2023-10-19T12:51:50.603Z,60.98
2023-10-19T12:54:39.033Z,61.76
2023-10-19T12:57:12.027Z,62.13
2023-10-19T13:00:39.943Z,61.45
2023-10-19T13:03:45.934Z,58.13
2023-10-19T13:39:48.974Z,60.44
2023-10-19T14:37:28.491Z,60.52
2023-10-19T14:47:23.699Z,61.16
2023-10-19T15:08:34.547Z,63.05
2023-10-19T15:11:09.188Z,62.53
2023-10-19T15:13:44.841Z,60.96
2023-10-19T15:16:23.602Z,59.30
2023-10-19T15:40:22.776Z,63.18
2023-10-19T15:52:45.560Z,62.42
2023-10-19T16:09:11.692Z,59.90
2023-10-19T16:50:23.996Z,61.68
2023-10-19T16:53:12.564Z,64.10
2023-10-19T16:59:07.189Z,62.62
2023-10-19T17:01:52.516Z,61.84
2023-10-19T17:04:42.927Z,61.36
2023-10-19T17:07:35.992Z,60.98
2023-10-19T17:13:18.779Z,60.47
2023-10-19T17:15:59.135Z,60.37
2023-10-19T17:31:54.533Z,59.19
2023-10-19T17:37:27.065Z,64.30
2023-10-19T17:46:15.884Z,61.99
2023-10-19T17:48:48.022Z,61.46
2023-10-19T17:51:17.087Z,61.23
2023-10-19T17:53:45.712Z,60.72
2023-10-19T17:56:13.871Z,60.20
2023-10-19T17:58:47.134Z,59.79
2023-10-19T18:01:21.585Z,59.44
2023-10-19T18:03:51.471Z,60.05
2023-10-19T18:06:19.969Z,62.62
2023-10-19T18:08:48.825Z,64.40
2023-10-19T18:11:18.077Z,63.78
2023-10-19T18:13:46.990Z,62.87
2023-10-19T18:16:15.630Z,62.14
2023-10-19T18:18:49.361Z,61.74
2023-10-19T18:21:19.283Z,61.23
2023-10-19T18:23:48.831Z,60.54
2023-10-19T18:26:33.821Z,60.37
2023-10-19T19:07:34.170Z,60.29
2023-10-19T19:10:09.700Z,60.04
2023-10-19T19:12:40.352Z,59.61
2023-10-19T19:15:15.694Z,60.96
2023-10-19T19:25:17.272Z,63.12
2023-10-19T19:28:24.597Z,62.17
2023-10-19T19:30:56.824Z,61.59
2023-10-19T19:33:28.998Z,61.28
2023-10-19T19:36:04.560Z,60.97
2023-10-19T19:38:34.074Z,60.68
2023-10-19T19:41:03.560Z,60.56
2023-10-19T19:43:34.578Z,60.28
2023-10-19T19:46:06.144Z,60.16
2023-10-19T19:48:33.671Z,59.88
2023-10-19T19:51:00.933Z,59.65
2023-10-19T19:53:32.021Z,59.38
2023-10-19T19:56:08.712Z,59.79
2023-10-19T19:58:37.643Z,62.28
2023-10-19T20:01:10.433Z,63.64
2023-10-19T20:03:44.611Z,62.92
2023-10-19T20:06:17.970Z,62.27
2023-10-19T20:08:54.750Z,61.71
2023-10-19T20:16:59.817Z,60.92
2023-10-19T21:03:12.208Z,63.97
2023-10-19T21:06:51.763Z,64.54
2023-10-19T21:09:25.154Z,63.41
2023-10-19T21:31:19.203Z,60.28
2023-10-19T21:45:10.900Z,62.14
2023-10-19T22:14:18.900Z,60.13
2023-10-19T22:17:41.384Z,59.79
2023-10-19T22:20:14.228Z,59.42
2023-10-19T22:22:42.495Z,59.51
2023-10-19T22:25:13.721Z,62.06
2023-10-19T22:27:43.358Z,63.99
2023-10-19T22:30:13.016Z,63.57
2023-10-19T22:32:43.161Z,62.72
2023-10-19T22:35:10.734Z,62.30
2023-10-19T22:37:38.576Z,61.90
2023-10-19T22:40:07.610Z,61.48
2023-10-19T22:42:36.622Z,61.28
2023-10-19T22:45:10.029Z,61.04
2023-10-19T22:47:39.146Z,60.87
2023-10-19T22:50:12.071Z,60.64
2023-10-19T22:52:39.488Z,60.59
2023-10-19T22:55:09.286Z,60.38
2023-10-19T22:57:45.827Z,60.15
2023-10-19T23:00:24.328Z,59.95
2023-10-19T23:03:02.720Z,59.78
2023-10-19T23:05:33.057Z,59.61
2023-10-19T23:08:01.612Z,59.31
2023-10-19T23:10:30.507Z,59.94
2023-10-19T23:13:00.652Z,62.19
2023-10-19T23:15:41.393Z,64.27
2023-10-19T23:18:11.432Z,63.76
2023-10-19T23:20:40.924Z,63.00
2023-10-19T23:23:11.890Z,62.37
2023-10-19T23:25:43.886Z,61.86
2023-10-19T23:28:13.489Z,61.45
2023-10-19T23:30:41.922Z,61.10
2023-10-19T23:33:09.509Z,60.85
2023-10-19T23:35:37.321Z,60.68
2023-10-19T23:38:08.194Z,60.53
2023-10-19T23:40:36.866Z,60.37
2023-10-19T23:43:06.502Z,60.27
2023-10-19T23:45:37.376Z,60.18
2023-10-19T23:48:17.407Z,60.06
2023-10-19T23:50:51.461Z,59.85
2023-10-19T23:53:22.296Z,59.77
2023-10-19T23:55:50.750Z,59.66
2023-10-19T23:58:19.103Z,59.55
